La Marsa, Tunisia
Current Conditions -  °F | °C
As of 2:00 AM on Sunday 21 Dec 2014 (Local Time) from DTTA Reporting Station
Few Clouds Few Clouds  
Wind Chill: 59°   Ceiling: Unl
Heat Index: 59°   Visibility: 6mi
Dew Point: 50°   Wind: 10mph
Humidity: 72%   Direction: 240°WSW
Pressure: 30.33"   Gusts: NA
Location:  36.88°N, 10.33°E
Report Text: DTTA 210100Z 24009KT 9999 FEW020 15/10 Q1027 NOSIG
Loading
Personal Weather Stations






























Interactive Weather Map New forecast layout! Learn more

10-Day Weather Forecast

Advertisements
Track Severe Weather on mobile